Time,TemperatureF,DewpointF,PressureIn,WindDirection,WindDirectionDegrees,WindSpeedMPH,WindSpeedGustMPH,Humidity,HourlyPrecipIn,Conditions,Clouds,dailyrainin,SoftwareType,DateUTC
2017-07-22 00:00:00,75.0,51.6,30.00,SSW,202,2.3,2.3,44,0.00,CLR,,0.00,WeatherDisplay:10.37,2017-07-22 07:00:00,
2017-07-22 00:05:00,75.0,52.2,30.00,South,180,4.2,4.2,45,0.00,CLR,,0.00,WeatherDisplay:10.37,2017-07-22 07:05:00,
2017-07-22 00:10:00,75.0,52.2,30.00,South,180,5.8,5.8,45,0.00,CLR,,0.00,WeatherDisplay:10.37,2017-07-22 07:10:00,
2017-07-22 00:15:00,75.0,52.2,30.00,SSW,202,3.7,3.7,45,0.00,CLR,,0.00,WeatherDisplay:10.37,2017-07-22 07:15:00,
2017-07-22 00:20:00,74.8,52.0,30.00,SSW,202,4.6,4.6,45,0.00,CLR,,0.00,WeatherDisplay:10.37,2017-07-22 07:20:00,
2017-07-22 00:25:00,74.7,51.9,30.00,SSW,202,3.5,3.5,45,0.00,CLR,,0.00,WeatherDisplay:10.37,2017-07-22 07:25:00,
2017-07-22 00:30:00,74.5,51.8,30.00,SW,225,4.6,4.6,45,0.00,CLR,,0.00,WeatherDisplay:10.37,2017-07-22 07:30:00,
2017-07-22 00:35:00,74.5,51.8,30.00,SSW,202,3.5,3.5,45,0.00,CLR,,0.00,WeatherDisplay:10.37,2017-07-22 07:35:00,
2017-07-22 00:40:00,74.3,51.0,30.00,SW,225,3.5,3.5,44,0.00,CLR,,0.00,WeatherDisplay:10.37,2017-07-22 07:40:00,
2017-07-22 00:45:00,74.3,51.0,29.99,SW,225,3.7,3.7,44,0.00,CLR,,0.00,WeatherDisplay:10.37,2017-07-22 07:45:00,
2017-07-22 00:50:00,74.3,51.0,29.99,SW,225,3.5,3.5,44,0.00,CLR,,0.00,WeatherDisplay:10.37,2017-07-22 07:50:00,
2017-07-22 00:55:00,74.3,50.4,29.99,SW,225,4.6,4.6,43,0.00,CLR,,0.00,WeatherDisplay:10.37,2017-07-22 07:55:00,
2017-07-22 01:00:00,74.1,49.5,29.99,SSW,202,3.5,3.5,42,0.00,CLR,,0.00,WeatherDisplay:10.37,2017-07-22 08:00:00,
2017-07-22 01:05:00,73.8,49.3,29.99,SSW,202,2.3,2.3,42,0.00,CLR,,0.00,WeatherDisplay:10.37,2017-07-22 08:05:00,
2017-07-22 01:10:00,73.0,48.5,29.99,South,180,0.0,0.0,42,0.00,CLR,,0.00,WeatherDisplay:10.37,2017-07-22 08:10:00,
2017-07-22 01:15:00,72.9,48.5,29.99,SSW,202,2.3,2.3,42,0.00,CLR,,0.00,WeatherDisplay:10.37,2017-07-22 08:15:00,
2017-07-22 01:20:00,73.0,48.5,29.99,SSW,202,3.5,3.5,42,0.00,CLR,,0.00,WeatherDisplay:10.37,2017-07-22 08:20:00,
2017-07-22 01:25:00,73.0,48.5,29.99,SSW,202,3.7,3.7,42,0.00,CLR,,0.00,WeatherDisplay:10.37,2017-07-22 08:25:00,
2017-07-22 01:30:00,72.9,48.5,29.99,SSE,158,3.7,3.7,42,0.00,CLR,,0.00,WeatherDisplay:10.37,2017-07-22 08:30:00,
2017-07-22 01:35:00,72.1,48.4,29.99,ENE,68,3.7,3.7,43,0.00,CLR,,0.00,WeatherDisplay:10.37,2017-07-22 08:35:00,
2017-07-22 01:40:00,71.8,48.1,29.99,SSE,158,3.5,3.5,43,0.00,CLR,,0.00,WeatherDisplay:10.37,2017-07-22 08:40:00,
2017-07-22 01:45:00,71.4,48.3,29.99,SSE,158,2.7,2.7,44,0.00,CLR,,0.00,WeatherDisplay:10.37,2017-07-22 08:45:00,
2017-07-22 01:50:00,70.9,47.9,29.99,ESE,112,3.5,3.5,44,0.00,CLR,,0.00,WeatherDisplay:10.37,2017-07-22 08:50:00,
2017-07-22 01:55:00,70.7,47.7,29.99,ESE,112,3.5,3.5,44,0.00,CLR,,0.00,WeatherDisplay:10.37,2017-07-22 08:55:00,
2017-07-22 02:00:00,70.5,48.1,29.99,South,180,3.5,3.5,45,0.00,CLR,,0.00,WeatherDisplay:10.37,2017-07-22 09:00:00,
2017-07-22 02:05:00,70.5,48.7,29.99,SSW,202,3.5,3.5,46,0.00,CLR,,0.00,WeatherDisplay:10.37,2017-07-22 09:05:00,
2017-07-22 02:10:00,70.3,48.5,29.98,ESE,112,2.7,2.7,46,0.00,CLR,,0.00,WeatherDisplay:10.37,2017-07-22 09:10:00,
2017-07-22 02:15:00,70.3,49.1,29.98,South,180,3.5,3.5,47,0.00,CLR,,0.00,WeatherDisplay:10.37,2017-07-22 09:15:00,
2017-07-22 02:20:00,70.3,49.7,29.98,SSW,202,2.3,2.5,48,0.00,CLR,,0.00,WeatherDisplay:10.37,2017-07-22 09:20:00,
2017-07-22 02:25:00,70.2,49.6,29.98,SSW,202,1.7,1.7,48,0.00,CLR,,0.00,WeatherDisplay:10.37,2017-07-22 09:25:00,
2017-07-22 02:30:00,70.5,50.4,29.98,SSW,202,5.8,5.8,49,0.00,CLR,,0.00,WeatherDisplay:10.37,2017-07-22 09:30:00,
2017-07-22 02:35:00,70.7,50.6,29.98,SSW,202,4.7,4.7,49,0.00,CLR,,0.00,WeatherDisplay:10.37,2017-07-22 09:35:00,
2017-07-22 02:40:00,70.7,50.6,29.98,SSW,202,4.6,4.6,49,0.00,CLR,,0.00,WeatherDisplay:10.37,2017-07-22 09:40:00,
2017-07-22 02:45:00,70.7,50.6,29.98,South,180,3.5,3.5,49,0.00,CLR,,0.00,WeatherDisplay:10.37,2017-07-22 09:45:00,
2017-07-22 02:50:00,70.5,50.4,29.98,West,270,3.5,3.5,49,0.00,CLR,,0.00,WeatherDisplay:10.37,2017-07-22 09:50:00,
2017-07-22 02:55:00,70.3,50.8,29.98,South,180,2.3,2.3,50,0.00,CLR,,0.00,WeatherDisplay:10.37,2017-07-22 09:55:00,
2017-07-22 03:00:00,69.6,50.1,29.98,NNE,22,1.7,1.7,50,0.00,CLR,,0.00,WeatherDisplay:10.37,2017-07-22 10:00:00,
2017-07-22 03:05:00,68.9,50.0,29.98,East,90,2.3,2.3,51,0.00,CLR,,0.00,WeatherDisplay:10.37,2017-07-22 10:05:00,
2017-07-22 03:10:00,68.5,50.2,29.98,ESE,112,1.7,1.7,52,0.00,CLR,,0.00,WeatherDisplay:10.37,2017-07-22 10:10:00,
2017-07-22 03:15:00,68.4,50.1,29.98,NE,45,2.3,2.3,52,0.00,CLR,,0.00,WeatherDisplay:10.37,2017-07-22 10:15:00,
2017-07-22 03:20:00,67.8,50.0,29.98,NE,45,2.7,2.7,53,0.00,CLR,,0.00,WeatherDisplay:10.37,2017-07-22 10:20:00,
2017-07-22 03:25:00,67.6,50.4,29.98,ESE,112,1.7,1.7,54,0.00,CLR,,0.00,WeatherDisplay:10.37,2017-07-22 10:25:00,
2017-07-22 03:30:00,67.5,50.3,29.98,ESE,112,0.0,0.0,54,0.00,CLR,,0.00,WeatherDisplay:10.37,2017-07-22 10:30:00,
2017-07-22 03:35:00,67.3,50.6,29.97,SE,135,0.0,0.0,55,0.00,CLR,,0.00,WeatherDisplay:10.37,2017-07-22 10:35:00,
2017-07-22 03:40:00,67.3,50.6,29.97,ESE,112,0.0,0.0,55,0.00,CLR,,0.00,WeatherDisplay:10.37,2017-07-22 10:40:00,
2017-07-22 03:45:00,66.9,50.2,29.98,NNE,22,2.7,2.7,55,0.00,CLR,,0.00,WeatherDisplay:10.37,2017-07-22 10:45:00,
2017-07-22 03:50:00,66.6,50.4,29.98,NNE,22,3.5,3.5,56,0.00,CLR,,0.00,WeatherDisplay:10.37,2017-07-22 10:50:00,
2017-07-22 03:55:00,66.4,50.2,29.98,ESE,112,1.2,1.2,56,0.00,CLR,,0.00,WeatherDisplay:10.37,2017-07-22 10:55:00,
2017-07-22 04:00:00,66.4,50.2,29.98,ESE,112,0.0,0.0,56,0.00,CLR,,0.00,WeatherDisplay:10.37,2017-07-22 11:00:00,
2017-07-22 04:05:00,67.8,49.0,29.98,ESE,112,3.7,3.7,51,0.00,CLR,,0.00,WeatherDisplay:10.37,2017-07-22 11:05:00,
2017-07-22 04:10:00,67.1,49.9,29.98,NNE,22,1.2,1.2,54,0.00,CLR,,0.00,WeatherDisplay:10.37,2017-07-22 11:10:00,
2017-07-22 04:15:00,66.6,50.4,29.98,East,90,2.3,2.3,56,0.00,CLR,,0.00,WeatherDisplay:10.37,2017-07-22 11:15:00,
2017-07-22 04:20:00,66.0,50.3,29.98,West,270,3.7,3.7,57,0.00,CLR,,0.00,WeatherDisplay:10.37,2017-07-22 11:20:00,
2017-07-22 04:25:00,65.5,50.3,29.98,NE,45,0.0,0.0,58,0.00,CLR,,0.00,WeatherDisplay:10.37,2017-07-22 11:25:00,
2017-07-22 04:30:00,65.3,50.6,29.98,North,360,0.0,0.0,59,0.00,CLR,,0.00,WeatherDisplay:10.37,2017-07-22 11:30:00,
2017-07-22 04:35:00,64.9,50.2,29.98,WNW,292,0.0,0.0,59,0.00,CLR,,0.00,WeatherDisplay:10.37,2017-07-22 11:35:00,
2017-07-22 04:37:00,64.9,50.2,29.98,WNW,292,2.2,2.2,59,0.00,CLR,,0.00,WeatherDisplay:10.37,2017-07-22 11:37:00,
2017-07-22 04:42:00,64.8,50.6,29.98,NNE,22,0.0,0.0,60,0.00,CLR,,0.00,WeatherDisplay:10.37,2017-07-22 11:42:00,
2017-07-22 04:47:00,64.2,50.5,29.98,ESE,112,2.3,2.3,61,0.00,CLR,,0.00,WeatherDisplay:10.37,2017-07-22 11:47:00,
2017-07-22 04:52:00,64.2,50.5,29.98,ESE,112,2.2,2.2,61,0.00,CLR,,0.00,WeatherDisplay:10.37,2017-07-22 11:52:00,
2017-07-22 04:57:00,64.6,50.8,29.99,SSE,158,1.7,1.7,61,0.00,CLR,,0.00,WeatherDisplay:10.37,2017-07-22 11:57:00,
2017-07-22 05:02:00,64.4,50.7,29.99,East,90,1.2,1.2,61,0.00,CLR,,0.00,WeatherDisplay:10.37,2017-07-22 12:02:00,
2017-07-22 05:07:00,64.4,50.7,29.99,East,90,0.0,0.0,61,0.00,CLR,,0.00,WeatherDisplay:10.37,2017-07-22 12:07:00,
2017-07-22 05:12:00,64.4,51.1,29.99,SSE,158,1.2,0.0,62,0.00,CLR,,0.00,WeatherDisplay:10.37,2017-07-22 12:12:00,
2017-07-22 05:17:00,64.0,50.7,29.99,SW,225,1.7,1.7,62,0.00,CLR,,0.00,WeatherDisplay:10.37,2017-07-22 12:17:00,
2017-07-22 05:22:00,64.0,51.1,29.99,ESE,112,2.3,2.3,63,0.00,CLR,,0.00,WeatherDisplay:10.37,2017-07-22 12:22:00,
2017-07-22 05:27:00,63.9,51.1,29.99,SSW,202,0.0,0.0,63,0.00,CLR,,0.00,WeatherDisplay:10.37,2017-07-22 12:27:00,
2017-07-22 05:32:00,63.9,51.1,29.99,ESE,112,2.3,2.3,63,0.00,CLR,,0.00,WeatherDisplay:10.37,2017-07-22 12:32:00,
2017-07-22 05:37:00,63.5,50.7,29.99,ESE,112,0.0,0.0,63,0.00,CLR,,0.00,WeatherDisplay:10.37,2017-07-22 12:37:00,
2017-07-22 05:42:00,63.3,50.5,29.99,ESE,112,1.2,1.2,63,0.00,CLR,,0.00,WeatherDisplay:10.37,2017-07-22 12:42:00,
2017-07-22 05:47:00,63.5,51.1,29.99,SSW,202,2.3,2.3,64,0.00,CLR,,0.00,WeatherDisplay:10.37,2017-07-22 12:47:00,
2017-07-22 05:52:00,63.5,50.7,29.99,ESE,112,1.7,1.7,63,0.00,CLR,,0.00,WeatherDisplay:10.37,2017-07-22 12:52:00,
2017-07-22 05:57:00,63.9,51.1,29.99,East,90,3.5,3.5,63,0.00,CLR,,0.00,WeatherDisplay:10.37,2017-07-22 12:57:00,
2017-07-22 06:02:00,64.0,50.7,29.99,NE,45,3.5,3.5,62,0.00,CLR,,0.00,WeatherDisplay:10.37,2017-07-22 13:02:00,
2017-07-22 06:07:00,64.0,50.3,29.99,South,180,2.7,2.7,61,0.00,CLR,,0.00,WeatherDisplay:10.37,2017-07-22 13:07:00,
2017-07-22 06:12:00,64.4,50.7,30.00,ESE,112,2.3,2.3,61,0.00,CLR,,0.00,WeatherDisplay:10.37,2017-07-22 13:12:00,
2017-07-22 06:17:00,64.9,50.7,30.00,SE,135,3.5,3.5,60,0.00,CLR,,0.00,WeatherDisplay:10.37,2017-07-22 13:17:00,
2017-07-22 06:22:00,65.1,50.4,30.00,SE,135,4.7,4.7,59,0.00,CLR,,0.00,WeatherDisplay:10.37,2017-07-22 13:22:00,
2017-07-22 06:27:00,65.1,50.4,30.00,ESE,112,2.2,2.2,59,0.00,CLR,,0.00,WeatherDisplay:10.37,2017-07-22 13:27:00,
2017-07-22 06:32:00,66.0,51.3,30.00,SE,135,3.5,3.5,59,0.00,CLR,,0.00,WeatherDisplay:10.37,2017-07-22 13:32:00,
2017-07-22 06:37:00,66.2,51.4,30.00,ESE,112,3.5,3.5,59,0.00,CLR,,0.00,WeatherDisplay:10.37,2017-07-22 13:37:00,
2017-07-22 06:42:00,66.6,51.8,30.00,ESE,112,2.3,2.3,59,0.00,CLR,,0.00,WeatherDisplay:10.37,2017-07-22 13:42:00,
2017-07-22 06:47:00,66.9,51.6,30.01,SE,135,2.3,2.3,58,0.00,CLR,,0.00,WeatherDisplay:10.37,2017-07-22 13:47:00,
2017-07-22 06:52:00,67.3,51.5,30.01,South,180,2.7,2.7,57,0.00,CLR,,0.00,WeatherDisplay:10.37,2017-07-22 13:52:00,
2017-07-22 06:57:00,67.8,52.0,30.01,ESE,112,2.3,2.3,57,0.00,CLR,,0.00,WeatherDisplay:10.37,2017-07-22 13:57:00,
2017-07-22 07:02:00,68.5,52.2,30.01,ESE,112,2.7,2.7,56,0.00,CLR,,0.00,WeatherDisplay:10.37,2017-07-22 14:02:00,
2017-07-22 07:07:00,69.1,52.2,30.01,SE,135,2.7,2.7,55,0.00,CLR,,0.00,WeatherDisplay:10.37,2017-07-22 14:07:00,
2017-07-22 07:12:00,70.0,52.6,30.01,SSE,158,3.5,3.5,54,0.00,CLR,,0.00,WeatherDisplay:10.37,2017-07-22 14:12:00,
2017-07-22 07:17:00,70.9,52.4,30.01,ESE,112,3.7,3.7,52,0.00,CLR,,0.00,WeatherDisplay:10.37,2017-07-22 14:17:00,
2017-07-22 07:22:00,71.8,52.2,30.01,South,180,4.6,4.6,50,0.00,CLR,,0.00,WeatherDisplay:10.37,2017-07-22 14:22:00,
2017-07-22 07:27:00,72.7,51.9,30.01,ESE,112,3.5,3.5,48,0.00,CLR,,0.00,WeatherDisplay:10.37,2017-07-22 14:27:00,
2017-07-22 07:32:00,73.6,52.1,30.02,South,180,4.6,4.6,47,0.00,CLR,,0.00,WeatherDisplay:10.37,2017-07-22 14:32:00,
2017-07-22 07:37:00,74.3,51.6,30.02,SSE,158,4.6,4.6,45,0.00,CLR,,0.00,WeatherDisplay:10.37,2017-07-22 14:37:00,
2017-07-22 07:42:00,75.2,51.2,30.02,SSW,202,3.5,3.5,43,0.00,CLR,,0.00,WeatherDisplay:10.37,2017-07-22 14:42:00,
2017-07-22 07:47:00,76.1,51.3,30.02,SSE,158,2.3,2.3,42,0.00,CLR,,0.00,WeatherDisplay:10.37,2017-07-22 14:47:00,
2017-07-22 07:52:00,77.0,50.8,30.02,South,180,3.5,3.5,40,0.00,CLR,,0.00,WeatherDisplay:10.37,2017-07-22 14:52:00,
2017-07-22 07:57:00,78.1,50.4,30.02,SSE,158,2.3,2.3,38,0.00,CLR,,0.00,WeatherDisplay:10.37,2017-07-22 14:57:00,
2017-07-22 08:02:00,79.2,50.7,30.02,SW,225,2.3,2.3,37,0.00,CLR,,0.00,WeatherDisplay:10.37,2017-07-22 15:02:00,
2017-07-22 08:07:00,80.1,50.0,30.02,ESE,112,2.2,2.2,35,0.00,CLR,,0.00,WeatherDisplay:10.37,2017-07-22 15:07:00,
2017-07-22 08:12:00,80.4,47.8,30.02,South,180,1.2,1.2,32,0.00,CLR,,0.00,WeatherDisplay:10.37,2017-07-22 15:12:00,
2017-07-22 08:17:00,80.1,45.0,30.02,WNW,292,4.6,4.6,29,0.00,CLR,,0.00,WeatherDisplay:10.37,2017-07-22 15:17:00,
2017-07-22 08:22:00,81.3,47.8,30.02,WNW,292,2.3,2.3,31,0.00,CLR,,0.00,WeatherDisplay:10.37,2017-07-22 15:22:00,
2017-07-22 08:23:00,81.3,47.8,30.02,West,270,2.7,2.7,31,0.00,CLR,,0.00,WeatherDisplay:10.37,2017-07-22 15:23:00,
2017-07-22 08:27:00,81.9,47.4,30.02,NNW,338,4.7,4.7,30,0.00,CLR,,0.00,WeatherDisplay:10.37,2017-07-22 15:27:00,
2017-07-22 08:32:00,81.9,46.5,30.02,West,270,3.7,3.7,29,0.00,CLR,,0.00,WeatherDisplay:10.37,2017-07-22 15:32:00,
2017-07-22 08:37:00,82.8,47.3,30.02,NNW,338,2.7,2.7,29,0.00,CLR,,0.00,WeatherDisplay:10.37,2017-07-22 15:37:00,
2017-07-22 08:42:00,84.6,47.9,30.02,NNW,338,2.3,2.3,28,0.00,CLR,,0.00,WeatherDisplay:10.37,2017-07-22 15:42:00,
2017-07-22 08:47:00,85.1,48.3,30.02,West,270,2.3,2.3,28,0.00,CLR,,0.00,WeatherDisplay:10.37,2017-07-22 15:47:00,
2017-07-22 08:52:00,85.3,48.5,30.02,NNE,22,3.5,3.5,28,0.00,CLR,,0.00,WeatherDisplay:10.37,2017-07-22 15:52:00,
2017-07-22 08:57:00,87.3,48.2,30.02,North,360,3.5,3.5,26,0.00,CLR,,0.00,WeatherDisplay:10.37,2017-07-22 15:57:00,
2017-07-22 09:02:00,87.4,47.3,30.02,NW,315,2.7,2.7,25,0.00,CLR,,0.00,WeatherDisplay:10.37,2017-07-22 16:02:00,
2017-07-22 09:07:00,87.1,47.0,30.02,West,270,1.7,1.7,25,0.00,CLR,,0.00,WeatherDisplay:10.37,2017-07-22 16:07:00,
2017-07-22 09:12:00,88.5,48.2,30.02,West,270,0.0,0.0,25,0.00,CLR,,0.00,WeatherDisplay:10.37,2017-07-22 16:12:00,
2017-07-22 09:17:00,89.2,47.7,30.02,WSW,248,2.3,0.0,24,0.00,CLR,,0.00,WeatherDisplay:10.37,2017-07-22 16:17:00,
2017-07-22 09:22:00,90.0,48.4,30.02,SSW,202,1.2,1.2,24,0.00,CLR,,0.00,WeatherDisplay:10.37,2017-07-22 16:22:00,
2017-07-22 09:27:00,94.5,52.1,30.02,SE,135,4.6,4.6,24,0.00,CLR,,0.00,WeatherDisplay:10.37,2017-07-22 16:27:00,
2017-07-22 09:29:00,95.5,51.8,30.02,North,360,3.5,3.5,23,0.00,CLR,,0.00,WeatherDisplay:10.37,2017-07-22 16:29:00,
2017-07-22 09:34:00,96.3,52.5,30.02,North,360,4.6,4.6,23,0.00,CLR,,0.00,WeatherDisplay:10.37,2017-07-22 16:34:00,
2017-07-22 09:39:00,97.7,53.6,30.02,ESE,112,2.3,2.3,23,0.00,CLR,,0.00,WeatherDisplay:10.37,2017-07-22 16:39:00,
2017-07-22 09:44:00,97.9,53.8,30.02,NNE,22,4.7,4.7,23,0.00,CLR,,0.00,WeatherDisplay:10.37,2017-07-22 16:44:00,
2017-07-22 09:49:00,98.2,54.1,30.02,NE,45,3.7,3.7,23,0.00,CLR,,0.00,WeatherDisplay:10.37,2017-07-22 16:49:00,
2017-07-22 09:54:00,97.2,53.2,30.02,East,90,5.8,5.8,23,0.00,CLR,,0.00,WeatherDisplay:10.37,2017-07-22 16:54:00,
2017-07-22 09:59:00,97.5,54.6,30.02,NNE,22,5.8,5.8,24,0.00,CLR,,0.00,WeatherDisplay:10.37,2017-07-22 16:59:00,
2017-07-22 10:04:00,95.9,53.3,30.02,NNE,22,2.3,2.3,24,0.00,CLR,,0.00,WeatherDisplay:10.37,2017-07-22 17:04:00,
2017-07-22 10:09:00,99.5,55.1,30.02,NNE,22,5.8,5.8,23,0.00,CLR,,0.00,WeatherDisplay:10.37,2017-07-22 17:09:00,
2017-07-22 10:14:00,97.9,53.8,30.02,SW,225,4.6,4.6,23,0.00,CLR,,0.00,WeatherDisplay:10.37,2017-07-22 17:14:00,
2017-07-22 10:19:00,98.8,54.6,30.02,WNW,292,4.7,4.7,23,0.00,CLR,,0.00,WeatherDisplay:10.37,2017-07-22 17:19:00,
2017-07-22 10:24:00,100.9,56.3,30.02,East,90,3.2,3.2,23,0.00,CLR,,0.00,WeatherDisplay:10.37,2017-07-22 17:24:00,
2017-07-22 10:29:00,102.4,57.6,30.02,North,360,4.6,4.6,23,0.00,CLR,,0.00,WeatherDisplay:10.37,2017-07-22 17:29:00,
2017-07-22 10:34:00,102.9,58.0,30.02,West,270,2.3,2.3,23,0.00,CLR,,0.00,WeatherDisplay:10.37,2017-07-22 17:34:00,
2017-07-22 10:39:00,103.3,58.3,30.02,ESE,112,2.3,2.3,23,0.00,CLR,,0.00,WeatherDisplay:10.37,2017-07-22 17:39:00,
2017-07-22 10:44:00,104.5,58.1,30.02,SE,135,2.3,2.3,22,0.00,CLR,,0.00,WeatherDisplay:10.37,2017-07-22 17:44:00,
2017-07-22 10:49:00,102.7,56.6,30.02,ESE,112,4.6,4.6,22,0.00,CLR,,0.00,WeatherDisplay:10.37,2017-07-22 17:49:00,
2017-07-22 10:54:00,99.9,55.5,30.02,SSW,202,4.6,4.6,23,0.00,CLR,,0.00,WeatherDisplay:10.37,2017-07-22 17:54:00,
2017-07-22 10:59:00,103.6,58.6,30.01,South,180,2.3,2.3,23,0.00,CLR,,0.00,WeatherDisplay:10.37,2017-07-22 17:59:00,
2017-07-22 11:04:00,104.7,58.2,30.01,SW,225,4.6,4.6,22,0.00,CLR,,0.00,WeatherDisplay:10.37,2017-07-22 18:04:00,
2017-07-22 11:09:00,106.0,59.3,30.01,NNW,338,4.6,4.6,22,0.00,CLR,,0.00,WeatherDisplay:10.37,2017-07-22 18:09:00,
2017-07-22 11:14:00,107.8,60.8,30.01,NW,315,5.8,5.8,22,0.00,CLR,,0.00,WeatherDisplay:10.37,2017-07-22 18:14:00,
2017-07-22 11:19:00,108.0,60.9,30.01,NNW,338,5.8,5.8,22,0.00,CLR,,0.00,WeatherDisplay:10.37,2017-07-22 18:19:00,
2017-07-22 11:24:00,107.8,59.5,30.00,SSE,158,3.7,4.2,21,0.00,CLR,,0.00,WeatherDisplay:10.37,2017-07-22 18:24:00,
2017-07-22 11:29:00,107.6,59.3,30.00,NW,315,5.8,5.8,21,0.00,CLR,,0.00,WeatherDisplay:10.37,2017-07-22 18:29:00,
2017-07-22 11:34:00,107.4,59.1,30.00,ESE,112,6.3,6.3,21,0.00,CLR,,0.00,WeatherDisplay:10.37,2017-07-22 18:34:00,
2017-07-22 11:39:00,105.1,57.3,30.00,West,270,4.6,4.6,21,0.00,CLR,,0.00,WeatherDisplay:10.37,2017-07-22 18:39:00,
2017-07-22 11:44:00,106.2,58.2,30.00,SSW,202,6.3,6.3,21,0.00,CLR,,0.00,WeatherDisplay:10.37,2017-07-22 18:44:00,
2017-07-22 11:49:00,107.8,59.5,30.00,SSE,158,5.8,5.8,21,0.00,CLR,,0.00,WeatherDisplay:10.37,2017-07-22 18:49:00,
2017-07-22 11:54:00,107.2,59.0,30.00,East,90,6.8,6.8,21,0.00,CLR,,0.00,WeatherDisplay:10.37,2017-07-22 18:54:00,
2017-07-22 11:59:00,108.7,60.2,30.00,NNW,338,4.6,4.6,21,0.00,CLR,,0.00,WeatherDisplay:10.37,2017-07-22 18:59:00,
2017-07-22 12:04:00,109.0,60.5,30.00,East,90,3.5,3.5,21,0.00,CLR,,0.00,WeatherDisplay:10.37,2017-07-22 19:04:00,
2017-07-22 12:09:00,110.7,61.9,29.99,ESE,112,3.5,3.5,21,0.00,CLR,,0.00,WeatherDisplay:10.37,2017-07-22 19:09:00,
2017-07-22 12:14:00,109.2,61.9,29.99,West,270,4.6,4.6,22,0.00,CLR,,0.00,WeatherDisplay:10.37,2017-07-22 19:14:00,
2017-07-22 12:19:00,112.8,64.9,29.99,WSW,248,2.3,2.3,22,0.00,CLR,,0.00,WeatherDisplay:10.37,2017-07-22 19:19:00,
2017-07-22 12:24:00,110.8,63.3,29.99,SSW,202,3.5,3.5,22,0.00,CLR,,0.00,WeatherDisplay:10.37,2017-07-22 19:24:00,
2017-07-22 12:29:00,108.3,63.7,29.99,South,180,6.8,6.8,24,0.00,CLR,,0.00,WeatherDisplay:10.37,2017-07-22 19:29:00,
2017-07-22 12:34:00,107.1,62.7,29.98,SW,225,9.2,9.2,24,0.00,CLR,,0.00,WeatherDisplay:10.37,2017-07-22 19:34:00,
2017-07-22 12:39:00,105.8,62.7,29.98,SE,135,11.4,11.4,25,0.00,CLR,,0.00,WeatherDisplay:10.37,2017-07-22 19:39:00,
2017-07-22 12:44:00,107.4,64.1,29.98,ESE,112,7.3,7.3,25,0.00,CLR,,0.00,WeatherDisplay:10.37,2017-07-22 19:44:00,
2017-07-22 12:49:00,105.6,62.6,29.98,SSW,202,9.2,9.2,25,0.00,CLR,,0.00,WeatherDisplay:10.37,2017-07-22 19:49:00,
2017-07-22 12:54:00,106.2,63.1,29.98,SSW,202,6.9,6.9,25,0.00,CLR,,0.00,WeatherDisplay:10.37,2017-07-22 19:54:00,
2017-07-22 12:59:00,105.8,63.9,29.98,SW,225,11.5,11.5,26,0.00,CLR,,0.00,WeatherDisplay:10.37,2017-07-22 19:59:00,
2017-07-22 13:04:00,105.3,63.4,29.98,SSE,158,13.0,13.0,26,0.00,CLR,,0.00,WeatherDisplay:10.37,2017-07-22 20:04:00,
2017-07-22 13:09:00,106.2,64.2,29.98,SW,225,6.8,6.8,26,0.00,CLR,,0.00,WeatherDisplay:10.37,2017-07-22 20:09:00,
2017-07-22 13:14:00,103.8,62.2,29.98,SW,225,13.5,13.5,26,0.00,CLR,,0.00,WeatherDisplay:10.37,2017-07-22 20:14:00,
2017-07-22 13:19:00,104.7,62.9,29.98,ESE,112,11.9,11.9,26,0.00,CLR,,0.00,WeatherDisplay:10.37,2017-07-22 20:19:00,
2017-07-22 13:24:00,104.2,62.5,29.98,SW,225,8.9,8.9,26,0.00,CLR,,0.00,WeatherDisplay:10.37,2017-07-22 20:24:00,
2017-07-22 13:29:00,105.3,63.4,29.98,SSW,202,11.9,11.9,26,0.00,CLR,,0.00,WeatherDisplay:10.37,2017-07-22 20:29:00,
2017-07-22 13:30:00,105.1,63.3,29.98,ESE,112,11.5,11.5,26,0.00,CLR,,0.00,WeatherDisplay:10.37,2017-07-22 20:30:00,
2017-07-22 13:35:00,104.0,62.3,29.98,SSW,202,10.9,10.9,26,0.00,CLR,,0.00,WeatherDisplay:10.37,2017-07-22 20:35:00,
2017-07-22 13:40:00,104.9,64.2,29.98,SSW,202,10.4,10.4,27,0.00,CLR,,0.00,WeatherDisplay:10.37,2017-07-22 20:40:00,
2017-07-22 13:45:00,105.3,64.5,29.97,SSW,202,12.5,12.5,27,0.00,CLR,,0.00,WeatherDisplay:10.37,2017-07-22 20:45:00,
2017-07-22 13:50:00,102.9,62.5,29.97,South,180,14.0,14.0,27,0.00,CLR,,0.00,WeatherDisplay:10.37,2017-07-22 20:50:00,
2017-07-22 13:55:00,103.8,63.2,29.97,South,180,10.4,10.4,27,0.00,CLR,,0.00,WeatherDisplay:10.37,2017-07-22 20:55:00,
2017-07-22 14:00:00,103.6,63.1,29.97,SE,135,10.4,10.6,27,0.00,CLR,,0.00,WeatherDisplay:10.37,2017-07-22 21:00:00,
2017-07-22 14:05:00,102.2,61.9,29.97,NNE,22,12.7,12.7,27,0.00,CLR,,0.00,WeatherDisplay:10.37,2017-07-22 21:05:00,
2017-07-22 14:10:00,103.8,63.2,29.97,SW,225,11.5,11.5,27,0.00,CLR,,0.00,WeatherDisplay:10.37,2017-07-22 21:10:00,
2017-07-22 14:15:00,103.8,63.2,29.97,West,270,13.0,13.0,27,0.00,CLR,,0.00,WeatherDisplay:10.37,2017-07-22 21:15:00,
2017-07-22 14:20:00,103.5,63.0,29.96,SSW,202,15.0,15.0,27,0.00,CLR,,0.00,WeatherDisplay:10.37,2017-07-22 21:20:00,
2017-07-22 14:25:00,102.9,62.5,29.96,SSW,202,12.7,12.7,27,0.00,CLR,,0.00,WeatherDisplay:10.37,2017-07-22 21:25:00,
2017-07-22 14:30:00,104.0,63.4,29.96,NNW,338,11.9,11.9,27,0.00,CLR,,0.00,WeatherDisplay:10.37,2017-07-22 21:30:00,
2017-07-22 14:35:00,103.1,62.7,29.96,South,180,14.0,14.0,27,0.00,CLR,,0.00,WeatherDisplay:10.37,2017-07-22 21:35:00,
2017-07-22 14:40:00,102.7,62.3,29.96,SW,225,11.5,11.5,27,0.00,CLR,,0.00,WeatherDisplay:10.37,2017-07-22 21:40:00,
2017-07-22 14:45:00,101.8,61.5,29.96,SSW,202,13.8,13.8,27,0.00,CLR,,0.00,WeatherDisplay:10.37,2017-07-22 21:45:00,